Flight Track Log - Related Links

Times and Time Zones

All times are in EST time to prevent confusion due to time zone crossing. See the PDT4226 flight status page for this flight to view local times or setup timezone preferences in your user account.

Time Position Orientation Groundspeed Altitude Reporting Facility
EST Latitude Longitude Course Direction KTS MPH feet Rate Location/Type
Tue 01:42:00 PM 42.0140 -75.9160 180° South  Level Estimated
Tue 01:43:00 PM 41.9654 -75.9002 180° South  Level Estimated
Tue 01:44:00 PM 41.9157 -75.9078 187° South  Level FlightAware
Tue 01:45:00 PM 41.8660 -75.9155 187° South  Level FlightAware
Tue 01:46:00 PM 41.8163 -75.9231 187° South  Level FlightAware
Tue 01:47:00 PM 41.7666 -75.9308 187° South  Level FlightAware
Tue 01:48:00 PM 41.7184 -75.9127 154° Southeast  Level Estimated
Tue 01:49:00 PM 41.6702 -75.8947 160° South  Level Estimated
Tue 01:50:00 PM 41.6220 -75.8767 159° South  Level Estimated
Tue 01:51:00 PM 41.5768 -75.8482 155° Southeast  Level FlightAware
Tue 01:52:00 PM 41.5315 -75.8198 155° Southeast  Level FlightAware
Tue 01:53:00 PM 41.4832 -75.8025 153° Southeast  Level Estimated
Tue 01:54:00 PM 41.4349 -75.7852 161° South  Level Estimated
Tue 01:55:00 PM 41.3893 -75.7576 156° South  Level FlightAware
Tue 01:56:00 PM 41.3438 -75.7300 156° South  Level FlightAware
Tue 01:57:00 PM 41.2983 -75.7024 156° South  Level FlightAware
Tue 01:58:00 PM 41.2497 -75.6864 162° South  Level Estimated
Tue 01:59:00 PM 41.2027 -75.6637 160° South  Level FlightAware
Tue 02:00:00 PM 41.1556 -75.6412 160° South  Level FlightAware
Tue 02:01:00 PM 41.1086 -75.6186 160° South  Level FlightAware
Tue 02:02:00 PM 41.0615 -75.5961 160° South  Level FlightAware
Tue 02:03:00 PM 41.0145 -75.5736 160° South  Level FlightAware
Tue 02:04:00 PM 40.9656 -75.5591 163° South  Level Estimated
Tue 02:05:00 PM 40.9182 -75.5383 162° South  Level FlightAware
Tue 02:06:00 PM 40.8707 -75.5174 162° South  Level FlightAware
Tue 02:06:50 PM 40.5667 -75.5667 187° South 245 282 6,500  Level Philadelphia TRACON
Tue 02:07:00 PM 40.8098 -75.4907 162° South  Level FlightAware
Tue 02:07:14 PM 40.5500 -75.5667 180° South 246 283 6,200  Level Philadelphia TRACON
Tue 02:08:00 PM 40.7490 -75.4641 162° South  Level FlightAware
Tue 02:08:14 PM 40.4833 -75.5500 169° South 250 288 5,400  Level Philadelphia TRACON
Tue 02:09:00 PM 40.6860 -75.4479 190° South  Level Estimated
Tue 02:09:14 PM 40.4167 -75.5000 150° Southeast 247 284 5,000  Level Philadelphia TRACON
Tue 02:10:00 PM 40.6233 -75.4655 192° South  Level FlightAware
Tue 02:10:14 PM 40.3667 -75.4667 153° Southeast 234 269 5,000  Level Philadelphia TRACON
Tue 02:11:00 PM 40.5606 -75.4831 192° South  Level FlightAware
Tue 02:11:14 PM 40.3167 -75.4167 143° Southeast 227 261 5,000  Level Philadelphia TRACON
Tue 02:12:00 PM 40.4986 -75.4611 187° South  Level Estimated
Tue 02:12:14 PM 40.2667 -75.3667 143° Southeast 228 262 5,000  Level Philadelphia TRACON
Tue 02:13:14 PM 40.2167 -75.3167 143° Southeast 230 265 5,000 -400 Level Philadelphia TRACON
Tue 02:14:14 PM 40.1500 -75.2833 159° South 238 274 4,200 -500 Descending Philadelphia TRACON
Tue 02:15:14 PM 40.0833 -75.2500 159° South 245 282 4,000 -100 Descending Philadelphia TRACON
Tue 02:16:14 PM 40.0333 -75.2167 153° Southeast 232 267 4,000  Level Philadelphia TRACON
Tue 02:17:14 PM 39.9667 -75.1833 159° South 231 266 4,000  Level Philadelphia TRACON
Tue 02:18:26 PM 39.9000 -75.1500 159° South 203 234 4,000  Level Philadelphia TRACON
Tue 02:19:14 PM 39.8500 -75.1333 166° South 201 231 4,000 -389 Level Philadelphia TRACON
Tue 02:20:14 PM 39.8000 -75.1000 153° Southeast 201 231 3,300 -1,000 Descending Philadelphia TRACON
Tue 02:21:14 PM 39.7500 -75.0833 166° South 196 226 2,000 -650 Descending Philadelphia TRACON
Tue 02:22:14 PM 39.7333 -75.1333 247° West 181 208 2,000 -50 Level Philadelphia TRACON
Tue 02:23:14 PM 39.7667 -75.1833 311° West 186 214 1,900 -200 Descending Philadelphia TRACON
Tue 02:24:14 PM 39.8167 -75.2000 346° North 173 199 1,600 -500 Descending Philadelphia TRACON
Tue 02:25:14 PM 39.8500 -75.2167 339° North 105 121 900 -700 Descending Philadelphia TRACON

Login

Don't have an account? Register now (free) for customized features, flight alerts, and more!